MIA weather

Miami International Airport
Miami, Florida, United States

Public forecast

Using degrees Fahrenheit for public forecast. Weather courtesy of forecast.io.

METAR (pilot weather report)

Retrieved 2017/03/29 08:53 UTC (9 minutes ago):

KMIA 290853Z 13003KT 10SM FEW024 22/18 A2998

TAF (pilot weather forecast)

Retrieved 2017/03/29 06:24 UTC (3 hours ago):

TAF KMIA 290520Z 2906/3006 16005KT P6SM FEW025 BKN050 BKN080 FM290800 VRB02KT P6SM SCT050 BKN080 FM291500 12010KT P6SM SCT035 SCT070